sensor_id;sensor_type;location;lat;lon;timestamp;temperature;humidity
8994;DHT22;4532;50.886;4.700;2022-08-19T00:00:15;23.60;96.00
8994;DHT22;4532;50.886;4.700;2022-08-19T00:02:43;23.60;96.00
8994;DHT22;4532;50.886;4.700;2022-08-19T00:05:17;23.50;96.30
8994;DHT22;4532;50.886;4.700;2022-08-19T00:07:49;23.50;96.00
8994;DHT22;4532;50.886;4.700;2022-08-19T00:10:19;23.50;96.10
8994;DHT22;4532;50.886;4.700;2022-08-19T00:12:50;23.40;96.20
8994;DHT22;4532;50.886;4.700;2022-08-19T00:15:20;23.40;96.10
8994;DHT22;4532;50.886;4.700;2022-08-19T00:17:48;23.40;96.20
8994;DHT22;4532;50.886;4.700;2022-08-19T00:20:19;23.30;96.20
8994;DHT22;4532;50.886;4.700;2022-08-19T00:22:51;23.30;96.20
8994;DHT22;4532;50.886;4.700;2022-08-19T00:25:19;23.30;96.30
8994;DHT22;4532;50.886;4.700;2022-08-19T00:27:56;23.30;96.20
8994;DHT22;4532;50.886;4.700;2022-08-19T00:30:26;23.20;96.20
8994;DHT22;4532;50.886;4.700;2022-08-19T00:32:59;23.20;96.30
8994;DHT22;4532;50.886;4.700;2022-08-19T00:35:28;23.20;96.30
8994;DHT22;4532;50.886;4.700;2022-08-19T00:37:56;23.20;96.30
8994;DHT22;4532;50.886;4.700;2022-08-19T00:40:23;23.10;96.30
8994;DHT22;4532;50.886;4.700;2022-08-19T00:42:52;23.10;96.30
8994;DHT22;4532;50.886;4.700;2022-08-19T00:45:27;23.00;96.30
8994;DHT22;4532;50.886;4.700;2022-08-19T00:48:04;23.00;96.30
8994;DHT22;4532;50.886;4.700;2022-08-19T00:50:44;23.00;96.30
8994;DHT22;4532;50.886;4.700;2022-08-19T00:53:21;23.00;96.40
8994;DHT22;4532;50.886;4.700;2022-08-19T00:55:51;23.00;96.50
8994;DHT22;4532;50.886;4.700;2022-08-19T00:58:24;22.90;96.40
8994;DHT22;4532;50.886;4.700;2022-08-19T01:00:54;22.90;96.50
8994;DHT22;4532;50.886;4.700;2022-08-19T01:03:24;22.90;96.40
8994;DHT22;4532;50.886;4.700;2022-08-19T01:05:56;22.90;96.40
8994;DHT22;4532;50.886;4.700;2022-08-19T01:08:26;22.90;96.50
8994;DHT22;4532;50.886;4.700;2022-08-19T01:10:58;22.90;96.50
8994;DHT22;4532;50.886;4.700;2022-08-19T01:13:29;22.90;96.40
8994;DHT22;4532;50.886;4.700;2022-08-19T01:16:17;22.90;96.50
8994;DHT22;4532;50.886;4.700;2022-08-19T01:18:45;22.90;96.40
8994;DHT22;4532;50.886;4.700;2022-08-19T01:21:30;22.90;96.30
8994;DHT22;4532;50.886;4.700;2022-08-19T01:23:58;23.00;96.60
8994;DHT22;4532;50.886;4.700;2022-08-19T01:26:27;22.90;96.50
8994;DHT22;4532;50.886;4.700;2022-08-19T01:28:58;22.90;96.50
8994;DHT22;4532;50.886;4.700;2022-08-19T01:31:30;22.90;96.60
8994;DHT22;4532;50.886;4.700;2022-08-19T01:33:59;22.90;96.50
8994;DHT22;4532;50.886;4.700;2022-08-19T01:39:03;22.90;96.50
8994;DHT22;4532;50.886;4.700;2022-08-19T01:41:30;22.90;96.60
8994;DHT22;4532;50.886;4.700;2022-08-19T01:44:04;22.90;96.50
8994;DHT22;4532;50.886;4.700;2022-08-19T01:46:47;22.90;96.60
8994;DHT22;4532;50.886;4.700;2022-08-19T01:49:16;22.80;96.60
8994;DHT22;4532;50.886;4.700;2022-08-19T01:51:46;22.80;96.60
8994;DHT22;4532;50.886;4.700;2022-08-19T01:54:15;22.80;96.60
8994;DHT22;4532;50.886;4.700;2022-08-19T01:57:01;22.80;96.70
8994;DHT22;4532;50.886;4.700;2022-08-19T01:59:30;22.70;97.10
8994;DHT22;4532;50.886;4.700;2022-08-19T02:01:57;22.70;96.70
8994;DHT22;4532;50.886;4.700;2022-08-19T02:04:27;22.60;96.70
8994;DHT22;4532;50.886;4.700;2022-08-19T02:06:54;22.60;96.80
8994;DHT22;4532;50.886;4.700;2022-08-19T02:09:23;22.60;96.80
8994;DHT22;4532;50.886;4.700;2022-08-19T02:11:55;22.60;96.80
8994;DHT22;4532;50.886;4.700;2022-08-19T02:14:25;22.60;96.80
8994;DHT22;4532;50.886;4.700;2022-08-19T02:16:56;22.50;96.80
8994;DHT22;4532;50.886;4.700;2022-08-19T02:19:26;22.50;96.80
8994;DHT22;4532;50.886;4.700;2022-08-19T02:21:54;22.50;97.00
8994;DHT22;4532;50.886;4.700;2022-08-19T02:24:21;22.50;96.90
8994;DHT22;4532;50.886;4.700;2022-08-19T02:26:51;22.50;97.00
8994;DHT22;4532;50.886;4.700;2022-08-19T02:29:18;22.40;96.90
8994;DHT22;4532;50.886;4.700;2022-08-19T02:31:48;22.40;96.90
8994;DHT22;4532;50.886;4.700;2022-08-19T02:34:18;22.40;96.90
8994;DHT22;4532;50.886;4.700;2022-08-19T02:36:45;22.40;96.90
8994;DHT22;4532;50.886;4.700;2022-08-19T02:39:21;22.40;96.90
8994;DHT22;4532;50.886;4.700;2022-08-19T02:41:48;22.40;96.90
8994;DHT22;4532;50.886;4.700;2022-08-19T02:44:16;22.30;96.90
8994;DHT22;4532;50.886;4.700;2022-08-19T02:46:59;22.30;96.90
8994;DHT22;4532;50.886;4.700;2022-08-19T02:49:27;22.20;96.90
8994;DHT22;4532;50.886;4.700;2022-08-19T02:51:54;22.20;96.90
8994;DHT22;4532;50.886;4.700;2022-08-19T02:54:23;22.20;97.00
8994;DHT22;4532;50.886;4.700;2022-08-19T02:56:50;22.20;97.00
8994;DHT22;4532;50.886;4.700;2022-08-19T02:59:18;22.10;96.80
8994;DHT22;4532;50.886;4.700;2022-08-19T03:01:51;22.10;96.90
8994;DHT22;4532;50.886;4.700;2022-08-19T03:04:19;22.10;97.00
8994;DHT22;4532;50.886;4.700;2022-08-19T03:06:49;22.00;96.90
8994;DHT22;4532;50.886;4.700;2022-08-19T03:09:18;22.00;97.00
8994;DHT22;4532;50.886;4.700;2022-08-19T03:11:46;22.00;97.00
8994;DHT22;4532;50.886;4.700;2022-08-19T03:14:21;21.90;96.90
8994;DHT22;4532;50.886;4.700;2022-08-19T03:16:50;21.90;96.90
8994;DHT22;4532;50.886;4.700;2022-08-19T03:19:21;21.90;97.00
8994;DHT22;4532;50.886;4.700;2022-08-19T03:21:49;21.80;97.00
8994;DHT22;4532;50.886;4.700;2022-08-19T03:24:18;21.80;97.00
8994;DHT22;4532;50.886;4.700;2022-08-19T03:26:50;21.80;97.00
8994;DHT22;4532;50.886;4.700;2022-08-19T03:29:21;21.70;97.10
8994;DHT22;4532;50.886;4.700;2022-08-19T03:32:05;21.70;97.10
8994;DHT22;4532;50.886;4.700;2022-08-19T03:34:34;21.70;97.20
8994;DHT22;4532;50.886;4.700;2022-08-19T03:37:07;21.60;97.10
8994;DHT22;4532;50.886;4.700;2022-08-19T03:39:41;21.50;97.10
8994;DHT22;4532;50.886;4.700;2022-08-19T03:42:11;21.50;97.10
8994;DHT22;4532;50.886;4.700;2022-08-19T03:44:59;21.40;97.00
8994;DHT22;4532;50.886;4.700;2022-08-19T03:47:26;21.50;97.40
8994;DHT22;4532;50.886;4.700;2022-08-19T03:49:53;21.40;97.20
8994;DHT22;4532;50.886;4.700;2022-08-19T03:52:21;21.30;97.20
8994;DHT22;4532;50.886;4.700;2022-08-19T03:54:54;21.30;97.30
8994;DHT22;4532;50.886;4.700;2022-08-19T03:57:21;21.30;97.30
8994;DHT22;4532;50.886;4.700;2022-08-19T04:00:01;21.30;97.20
8994;DHT22;4532;50.886;4.700;2022-08-19T04:02:42;21.20;97.20
8994;DHT22;4532;50.886;4.700;2022-08-19T04:05:29;21.20;97.10
8994;DHT22;4532;50.886;4.700;2022-08-19T04:07:56;21.20;97.10
8994;DHT22;4532;50.886;4.700;2022-08-19T04:10:28;21.20;97.20
8994;DHT22;4532;50.886;4.700;2022-08-19T04:13:00;21.10;97.10
8994;DHT22;4532;50.886;4.700;2022-08-19T04:15:29;21.10;97.00
8994;DHT22;4532;50.886;4.700;2022-08-19T04:18:02;21.10;97.40
8994;DHT22;4532;50.886;4.700;2022-08-19T04:20:45;21.10;97.40
8994;DHT22;4532;50.886;4.700;2022-08-19T04:23:15;21.10;97.20
8994;DHT22;4532;50.886;4.700;2022-08-19T04:25:47;21.00;97.00
8994;DHT22;4532;50.886;4.700;2022-08-19T04:28:20;21.00;97.10
8994;DHT22;4532;50.886;4.700;2022-08-19T04:30:55;21.00;97.10
8994;DHT22;4532;50.886;4.700;2022-08-19T04:33:24;21.00;97.20
8994;DHT22;4532;50.886;4.700;2022-08-19T04:35:56;20.90;97.10
8994;DHT22;4532;50.886;4.700;2022-08-19T04:38:27;20.90;97.10
8994;DHT22;4532;50.886;4.700;2022-08-19T04:40:55;20.90;97.10
8994;DHT22;4532;50.886;4.700;2022-08-19T04:43:40;20.90;97.10
8994;DHT22;4532;50.886;4.700;2022-08-19T04:46:10;20.90;97.20
8994;DHT22;4532;50.886;4.700;2022-08-19T04:48:59;20.90;97.20
8994;DHT22;4532;50.886;4.700;2022-08-19T04:51:41;20.80;97.10
8994;DHT22;4532;50.886;4.700;2022-08-19T04:54:09;20.80;97.20
8994;DHT22;4532;50.886;4.700;2022-08-19T04:56:36;20.80;97.20
8994;DHT22;4532;50.886;4.700;2022-08-19T04:59:04;20.70;97.20
8994;DHT22;4532;50.886;4.700;2022-08-19T05:01:33;20.70;97.10
8994;DHT22;4532;50.886;4.700;2022-08-19T05:04:06;20.80;97.30
8994;DHT22;4532;50.886;4.700;2022-08-19T05:06:36;20.70;97.30
8994;DHT22;4532;50.886;4.700;2022-08-19T05:09:04;20.70;97.30
8994;DHT22;4532;50.886;4.700;2022-08-19T05:11:36;20.70;97.50
8994;DHT22;4532;50.886;4.700;2022-08-19T05:14:08;20.70;97.60
8994;DHT22;4532;50.886;4.700;2022-08-19T05:16:36;20.70;97.50
8994;DHT22;4532;50.886;4.700;2022-08-19T05:19:03;20.70;97.40
8994;DHT22;4532;50.886;4.700;2022-08-19T05:21:51;20.70;97.40
8994;DHT22;4532;50.886;4.700;2022-08-19T05:24:37;20.70;97.40
8994;DHT22;4532;50.886;4.700;2022-08-19T05:27:27;20.70;97.60
8994;DHT22;4532;50.886;4.700;2022-08-19T05:29:54;20.70;97.60
8994;DHT22;4532;50.886;4.700;2022-08-19T05:32:24;20.70;97.50
8994;DHT22;4532;50.886;4.700;2022-08-19T05:34:51;20.70;97.80
8994;DHT22;4532;50.886;4.700;2022-08-19T05:37:21;20.70;97.50
8994;DHT22;4532;50.886;4.700;2022-08-19T05:39:52;20.70;97.50
8994;DHT22;4532;50.886;4.700;2022-08-19T05:42:19;20.70;97.50
8994;DHT22;4532;50.886;4.700;2022-08-19T05:44:50;20.80;97.60
8994;DHT22;4532;50.886;4.700;2022-08-19T05:47:20;20.80;97.60
8994;DHT22;4532;50.886;4.700;2022-08-19T05:49:47;20.80;97.60
8994;DHT22;4532;50.886;4.700;2022-08-19T05:52:16;20.80;97.60
8994;DHT22;4532;50.886;4.700;2022-08-19T05:54:51;20.80;97.50
8994;DHT22;4532;50.886;4.700;2022-08-19T05:57:19;20.80;97.60
8994;DHT22;4532;50.886;4.700;2022-08-19T05:59:49;20.80;97.60
8994;DHT22;4532;50.886;4.700;2022-08-19T06:02:30;20.80;97.70
8994;DHT22;4532;50.886;4.700;2022-08-19T06:04:58;20.90;97.90
8994;DHT22;4532;50.886;4.700;2022-08-19T06:07:28;20.90;97.80
8994;DHT22;4532;50.886;4.700;2022-08-19T06:09:55;20.90;97.70
8994;DHT22;4532;50.886;4.700;2022-08-19T06:12:34;21.00;97.70
8994;DHT22;4532;50.886;4.700;2022-08-19T06:15:07;21.00;97.80
8994;DHT22;4532;50.886;4.700;2022-08-19T06:17:35;21.00;97.70
8994;DHT22;4532;50.886;4.700;2022-08-19T06:20:07;21.10;97.80
8994;DHT22;4532;50.886;4.700;2022-08-19T06:22:41;21.10;97.80
8994;DHT22;4532;50.886;4.700;2022-08-19T06:25:13;21.20;97.80
8994;DHT22;4532;50.886;4.700;2022-08-19T06:27:41;21.20;97.90
8994;DHT22;4532;50.886;4.700;2022-08-19T06:30:28;21.20;97.90
8994;DHT22;4532;50.886;4.700;2022-08-19T06:32:56;21.20;97.90
8994;DHT22;4532;50.886;4.700;2022-08-19T06:35:26;21.30;97.90
8994;DHT22;4532;50.886;4.700;2022-08-19T06:37:53;21.30;97.90
8994;DHT22;4532;50.886;4.700;2022-08-19T06:40:24;21.40;98.00
8994;DHT22;4532;50.886;4.700;2022-08-19T06:42:58;21.40;98.10
8994;DHT22;4532;50.886;4.700;2022-08-19T06:45:29;21.40;98.10
8994;DHT22;4532;50.886;4.700;2022-08-19T06:48:01;21.50;98.10
8994;DHT22;4532;50.886;4.700;2022-08-19T06:50:29;21.50;98.20
8994;DHT22;4532;50.886;4.700;2022-08-19T06:53:06;21.60;98.20
8994;DHT22;4532;50.886;4.700;2022-08-19T06:55:36;21.60;98.20
8994;DHT22;4532;50.886;4.700;2022-08-19T06:58:05;21.60;98.20
8994;DHT22;4532;50.886;4.700;2022-08-19T07:00:34;21.70;98.30
8994;DHT22;4532;50.886;4.700;2022-08-19T07:03:04;21.80;98.40
8994;DHT22;4532;50.886;4.700;2022-08-19T07:05:39;21.80;98.40
8994;DHT22;4532;50.886;4.700;2022-08-19T07:08:14;21.90;98.50
8994;DHT22;4532;50.886;4.700;2022-08-19T07:10:47;21.90;98.50
8994;DHT22;4532;50.886;4.700;2022-08-19T07:13:19;22.00;98.50
8994;DHT22;4532;50.886;4.700;2022-08-19T07:15:49;22.00;98.60
8994;DHT22;4532;50.886;4.700;2022-08-19T07:18:20;22.00;98.60
8994;DHT22;4532;50.886;4.700;2022-08-19T07:21:12;22.00;98.60
8994;DHT22;4532;50.886;4.700;2022-08-19T07:23:41;22.10;98.60
8994;DHT22;4532;50.886;4.700;2022-08-19T07:26:37;22.10;98.60
8994;DHT22;4532;50.886;4.700;2022-08-19T07:29:11;22.10;98.60
8994;DHT22;4532;50.886;4.700;2022-08-19T07:31:39;22.10;98.90
8994;DHT22;4532;50.886;4.700;2022-08-19T07:34:11;22.10;98.60
8994;DHT22;4532;50.886;4.700;2022-08-19T07:36:42;22.10;99.00
8994;DHT22;4532;50.886;4.700;2022-08-19T07:39:24;22.20;98.80
8994;DHT22;4532;50.886;4.700;2022-08-19T07:41:52;22.30;99.10
8994;DHT22;4532;50.886;4.700;2022-08-19T07:44:24;22.40;99.00
8994;DHT22;4532;50.886;4.700;2022-08-19T07:46:55;22.40;99.10
8994;DHT22;4532;50.886;4.700;2022-08-19T07:49:23;22.50;99.10
8994;DHT22;4532;50.886;4.700;2022-08-19T07:51:59;22.60;99.10
8994;DHT22;4532;50.886;4.700;2022-08-19T07:54:32;22.60;99.20
8994;DHT22;4532;50.886;4.700;2022-08-19T07:57:02;22.70;99.10
8994;DHT22;4532;50.886;4.700;2022-08-19T07:59:32;22.80;99.30
8994;DHT22;4532;50.886;4.700;2022-08-19T08:02:02;22.80;99.30
8994;DHT22;4532;50.886;4.700;2022-08-19T08:04:32;22.90;99.30
8994;DHT22;4532;50.886;4.700;2022-08-19T08:07:20;23.00;99.30
8994;DHT22;4532;50.886;4.700;2022-08-19T08:10:12;23.00;99.20
8994;DHT22;4532;50.886;4.700;2022-08-19T08:12:50;23.10;99.30
8994;DHT22;4532;50.886;4.700;2022-08-19T08:15:37;23.20;99.30
8994;DHT22;4532;50.886;4.700;2022-08-19T08:18:11;23.20;99.40
8994;DHT22;4532;50.886;4.700;2022-08-19T08:20:40;23.30;99.40
8994;DHT22;4532;50.886;4.700;2022-08-19T08:23:07;23.30;99.40
8994;DHT22;4532;50.886;4.700;2022-08-19T08:25:54;23.40;99.40
8994;DHT22;4532;50.886;4.700;2022-08-19T08:28:22;23.40;99.40
8994;DHT22;4532;50.886;4.700;2022-08-19T08:30:58;23.40;99.50
8994;DHT22;4532;50.886;4.700;2022-08-19T08:33:27;23.40;99.50
8994;DHT22;4532;50.886;4.700;2022-08-19T08:36:07;23.50;99.50
8994;DHT22;4532;50.886;4.700;2022-08-19T08:38:41;23.50;99.50
8994;DHT22;4532;50.886;4.700;2022-08-19T08:43:51;23.60;99.70
8994;DHT22;4532;50.886;4.700;2022-08-19T08:46:35;23.70;99.60
8994;DHT22;4532;50.886;4.700;2022-08-19T08:49:32;23.80;99.70
8994;DHT22;4532;50.886;4.700;2022-08-19T08:54:43;23.90;99.60
8994;DHT22;4532;50.886;4.700;2022-08-19T09:00:12;24.00;99.80
8994;DHT22;4532;50.886;4.700;2022-08-19T09:02:43;24.00;99.50
8994;DHT22;4532;50.886;4.700;2022-08-19T09:05:18;24.10;99.50
8994;DHT22;4532;50.886;4.700;2022-08-19T09:08:08;24.00;99.50
8994;DHT22;4532;50.886;4.700;2022-08-19T09:10:52;24.00;99.60
8994;DHT22;4532;50.886;4.700;2022-08-19T09:15:58;24.10;99.70
8994;DHT22;4532;50.886;4.700;2022-08-19T09:18:51;24.20;99.60
8994;DHT22;4532;50.886;4.700;2022-08-19T09:21:26;24.30;99.60
8994;DHT22;4532;50.886;4.700;2022-08-19T09:24:06;24.30;99.60
8994;DHT22;4532;50.886;4.700;2022-08-19T09:26:35;24.30;99.60
8994;DHT22;4532;50.886;4.700;2022-08-19T09:29:21;24.30;99.80
8994;DHT22;4532;50.886;4.700;2022-08-19T09:31:51;24.40;99.90
8994;DHT22;4532;50.886;4.700;2022-08-19T09:34:22;24.40;99.90
8994;DHT22;4532;50.886;4.700;2022-08-19T09:36:52;24.50;99.90
8994;DHT22;4532;50.886;4.700;2022-08-19T09:39:21;24.60;99.90
8994;DHT22;4532;50.886;4.700;2022-08-19T09:41:49;24.60;99.90
8994;DHT22;4532;50.886;4.700;2022-08-19T09:44:19;24.70;99.90
8994;DHT22;4532;50.886;4.700;2022-08-19T09:46:47;24.70;99.90
8994;DHT22;4532;50.886;4.700;2022-08-19T09:49:16;24.70;99.90
8994;DHT22;4532;50.886;4.700;2022-08-19T09:51:45;24.80;99.80
8994;DHT22;4532;50.886;4.700;2022-08-19T09:54:18;24.90;99.90
8994;DHT22;4532;50.886;4.700;2022-08-19T09:56:54;24.90;99.90
8994;DHT22;4532;50.886;4.700;2022-08-19T09:59:22;25.00;99.90
8994;DHT22;4532;50.886;4.700;2022-08-19T10:01:49;25.00;99.90
8994;DHT22;4532;50.886;4.700;2022-08-19T10:04:21;25.10;99.90
8994;DHT22;4532;50.886;4.700;2022-08-19T10:06:51;25.10;99.90
8994;DHT22;4532;50.886;4.700;2022-08-19T10:09:21;25.20;99.90
8994;DHT22;4532;50.886;4.700;2022-08-19T10:12:01;25.20;99.90
8994;DHT22;4532;50.886;4.700;2022-08-19T10:14:30;25.20;99.90
8994;DHT22;4532;50.886;4.700;2022-08-19T10:17:01;25.30;99.80
8994;DHT22;4532;50.886;4.700;2022-08-19T10:19:49;25.30;99.80
8994;DHT22;4532;50.886;4.700;2022-08-19T10:22:22;25.30;99.90
8994;DHT22;4532;50.886;4.700;2022-08-19T10:24:52;25.30;99.80
8994;DHT22;4532;50.886;4.700;2022-08-19T10:27:20;25.40;99.90
8994;DHT22;4532;50.886;4.700;2022-08-19T10:29:47;25.40;99.80
8994;DHT22;4532;50.886;4.700;2022-08-19T10:32:17;25.50;99.90
8994;DHT22;4532;50.886;4.700;2022-08-19T10:35:00;25.50;99.90
8994;DHT22;4532;50.886;4.700;2022-08-19T10:37:31;25.60;99.80
8994;DHT22;4532;50.886;4.700;2022-08-19T10:40:01;25.50;99.80
8994;DHT22;4532;50.886;4.700;2022-08-19T10:42:29;25.60;99.70
8994;DHT22;4532;50.886;4.700;2022-08-19T10:44:58;25.60;99.80
8994;DHT22;4532;50.886;4.700;2022-08-19T10:47:29;25.70;99.50
8994;DHT22;4532;50.886;4.700;2022-08-19T10:50:02;25.70;99.70
8994;DHT22;4532;50.886;4.700;2022-08-19T10:52:57;25.70;99.60
8994;DHT22;4532;50.886;4.700;2022-08-19T10:55:24;25.70;99.60
8994;DHT22;4532;50.886;4.700;2022-08-19T10:58:16;25.80;99.70
8994;DHT22;4532;50.886;4.700;2022-08-19T11:00:59;25.80;99.70
8994;DHT22;4532;50.886;4.700;2022-08-19T11:03:29;25.90;99.70
8994;DHT22;4532;50.886;4.700;2022-08-19T11:06:04;26.00;99.90
8994;DHT22;4532;50.886;4.700;2022-08-19T11:08:36;26.10;99.70
8994;DHT22;4532;50.886;4.700;2022-08-19T11:11:07;26.10;99.70
8994;DHT22;4532;50.886;4.700;2022-08-19T11:13:41;26.20;99.60
8994;DHT22;4532;50.886;4.700;2022-08-19T11:16:16;26.20;99.70
8994;DHT22;4532;50.886;4.700;2022-08-19T11:18:49;26.20;99.30
8994;DHT22;4532;50.886;4.700;2022-08-19T11:23:56;26.30;99.60
8994;DHT22;4532;50.886;4.700;2022-08-19T11:26:28;26.30;99.70
8994;DHT22;4532;50.886;4.700;2022-08-19T11:29:01;26.30;99.70
8994;DHT22;4532;50.886;4.700;2022-08-19T11:31:34;26.30;99.80
8994;DHT22;4532;50.886;4.700;2022-08-19T11:34:08;26.30;99.80
8994;DHT22;4532;50.886;4.700;2022-08-19T11:36:38;26.30;99.80
8994;DHT22;4532;50.886;4.700;2022-08-19T11:39:07;26.30;99.70
8994;DHT22;4532;50.886;4.700;2022-08-19T11:41:35;26.30;99.70
8994;DHT22;4532;50.886;4.700;2022-08-19T11:44:04;26.40;99.40
8994;DHT22;4532;50.886;4.700;2022-08-19T11:46:31;26.40;99.40
8994;DHT22;4532;50.886;4.700;2022-08-19T11:49:01;26.40;99.80
8994;DHT22;4532;50.886;4.700;2022-08-19T11:51:30;26.40;99.60
8994;DHT22;4532;50.886;4.700;2022-08-19T11:54:04;26.30;99.50
8994;DHT22;4532;50.886;4.700;2022-08-19T11:56:34;26.40;99.60
8994;DHT22;4532;50.886;4.700;2022-08-19T11:59:01;26.30;99.40
8994;DHT22;4532;50.886;4.700;2022-08-19T12:01:34;26.30;99.60
8994;DHT22;4532;50.886;4.700;2022-08-19T12:04:03;26.30;99.60
8994;DHT22;4532;50.886;4.700;2022-08-19T12:06:33;26.30;99.70
8994;DHT22;4532;50.886;4.700;2022-08-19T12:09:06;26.40;99.80
8994;DHT22;4532;50.886;4.700;2022-08-19T12:11:38;26.50;99.70
8994;DHT22;4532;50.886;4.700;2022-08-19T12:14:09;26.50;99.70
8994;DHT22;4532;50.886;4.700;2022-08-19T12:16:41;26.50;99.70
8994;DHT22;4532;50.886;4.700;2022-08-19T12:19:16;26.50;99.50
8994;DHT22;4532;50.886;4.700;2022-08-19T12:21:51;26.50;99.50
8994;DHT22;4532;50.886;4.700;2022-08-19T12:24:19;26.50;99.50
8994;DHT22;4532;50.886;4.700;2022-08-19T12:26:52;26.50;99.10
8994;DHT22;4532;50.886;4.700;2022-08-19T12:29:32;26.50;99.40
8994;DHT22;4532;50.886;4.700;2022-08-19T12:32:02;26.50;99.40
8994;DHT22;4532;50.886;4.700;2022-08-19T12:34:31;26.50;99.40
8994;DHT22;4532;50.886;4.700;2022-08-19T12:37:02;26.50;99.50
8994;DHT22;4532;50.886;4.700;2022-08-19T12:39:33;26.50;99.50
8994;DHT22;4532;50.886;4.700;2022-08-19T12:42:01;26.50;99.60
8994;DHT22;4532;50.886;4.700;2022-08-19T12:44:28;26.60;99.80
8994;DHT22;4532;50.886;4.700;2022-08-19T12:46:59;26.70;99.80
8994;DHT22;4532;50.886;4.700;2022-08-19T12:49:29;26.70;99.80
8994;DHT22;4532;50.886;4.700;2022-08-19T12:52:21;26.80;99.80
8994;DHT22;4532;50.886;4.700;2022-08-19T12:54:55;26.80;99.60
8994;DHT22;4532;50.886;4.700;2022-08-19T12:57:26;26.90;99.80
8994;DHT22;4532;50.886;4.700;2022-08-19T13:00:06;26.90;99.70
8994;DHT22;4532;50.886;4.700;2022-08-19T13:02:38;27.00;99.60
8994;DHT22;4532;50.886;4.700;2022-08-19T13:05:12;27.00;99.70
8994;DHT22;4532;50.886;4.700;2022-08-19T13:07:40;27.10;99.60
8994;DHT22;4532;50.886;4.700;2022-08-19T13:10:09;27.10;99.50
8994;DHT22;4532;50.886;4.700;2022-08-19T13:12:39;27.20;99.50
8994;DHT22;4532;50.886;4.700;2022-08-19T13:15:11;27.20;99.60
8994;DHT22;4532;50.886;4.700;2022-08-19T13:17:41;27.30;99.40
8994;DHT22;4532;50.886;4.700;2022-08-19T13:20:11;27.30;99.40
8994;DHT22;4532;50.886;4.700;2022-08-19T13:22:43;27.40;99.30
8994;DHT22;4532;50.886;4.700;2022-08-19T13:25:12;27.50;99.60
8994;DHT22;4532;50.886;4.700;2022-08-19T13:27:42;27.50;99.20
8994;DHT22;4532;50.886;4.700;2022-08-19T13:30:14;27.50;99.10
8994;DHT22;4532;50.886;4.700;2022-08-19T13:33:03;27.40;99.20
8994;DHT22;4532;50.886;4.700;2022-08-19T13:35:58;27.50;99.40
8994;DHT22;4532;50.886;4.700;2022-08-19T13:38:28;27.50;99.30
8994;DHT22;4532;50.886;4.700;2022-08-19T13:40:55;27.60;99.40
8994;DHT22;4532;50.886;4.700;2022-08-19T13:43:26;27.60;99.40
8994;DHT22;4532;50.886;4.700;2022-08-19T13:45:54;27.70;99.40
8994;DHT22;4532;50.886;4.700;2022-08-19T13:48:27;27.70;99.10
8994;DHT22;4532;50.886;4.700;2022-08-19T13:50:57;27.70;98.90
8994;DHT22;4532;50.886;4.700;2022-08-19T13:53:25;27.70;99.20
8994;DHT22;4532;50.886;4.700;2022-08-19T13:55:55;27.70;98.90
8994;DHT22;4532;50.886;4.700;2022-08-19T13:58:22;27.80;99.10
8994;DHT22;4532;50.886;4.700;2022-08-19T14:00:52;27.80;99.00
8994;DHT22;4532;50.886;4.700;2022-08-19T14:03:19;27.80;98.90
8994;DHT22;4532;50.886;4.700;2022-08-19T14:05:49;27.80;98.80
8994;DHT22;4532;50.886;4.700;2022-08-19T14:08:16;27.90;98.80
8994;DHT22;4532;50.886;4.700;2022-08-19T14:10:49;27.90;98.90
8994;DHT22;4532;50.886;4.700;2022-08-19T14:13:18;27.90;99.00
8994;DHT22;4532;50.886;4.700;2022-08-19T14:15:51;27.90;98.90
8994;DHT22;4532;50.886;4.700;2022-08-19T14:18:19;28.00;99.00
8994;DHT22;4532;50.886;4.700;2022-08-19T14:20:46;28.00;98.60
8994;DHT22;4532;50.886;4.700;2022-08-19T14:23:13;28.00;98.90
8994;DHT22;4532;50.886;4.700;2022-08-19T14:25:43;28.10;98.90
8994;DHT22;4532;50.886;4.700;2022-08-19T14:28:16;28.00;98.70
8994;DHT22;4532;50.886;4.700;2022-08-19T14:30:46;28.10;98.70
8994;DHT22;4532;50.886;4.700;2022-08-19T14:33:15;28.10;98.60
8994;DHT22;4532;50.886;4.700;2022-08-19T14:35:42;28.10;98.70
8994;DHT22;4532;50.886;4.700;2022-08-19T14:38:21;28.10;98.60
8994;DHT22;4532;50.886;4.700;2022-08-19T14:41:18;28.20;98.60
8994;DHT22;4532;50.886;4.700;2022-08-19T14:43:53;28.20;98.60
8994;DHT22;4532;50.886;4.700;2022-08-19T14:46:25;28.20;98.20
8994;DHT22;4532;50.886;4.700;2022-08-19T14:49:00;28.10;98.30
8994;DHT22;4532;50.886;4.700;2022-08-19T14:51:35;28.00;97.70
8994;DHT22;4532;50.886;4.700;2022-08-19T14:54:04;28.00;98.00
8994;DHT22;4532;50.886;4.700;2022-08-19T14:56:32;28.00;98.10
8994;DHT22;4532;50.886;4.700;2022-08-19T14:58:59;28.00;97.80
8994;DHT22;4532;50.886;4.700;2022-08-19T15:01:29;27.90;97.80
8994;DHT22;4532;50.886;4.700;2022-08-19T15:03:58;27.90;97.50
8994;DHT22;4532;50.886;4.700;2022-08-19T15:06:29;27.90;97.50
8994;DHT22;4532;50.886;4.700;2022-08-19T15:08:59;27.80;97.50
8994;DHT22;4532;50.886;4.700;2022-08-19T15:11:30;27.70;97.50
8994;DHT22;4532;50.886;4.700;2022-08-19T15:14:01;27.60;98.10
8994;DHT22;4532;50.886;4.700;2022-08-19T15:16:32;27.60;98.70
8994;DHT22;4532;50.886;4.700;2022-08-19T15:19:02;27.60;98.80
8994;DHT22;4532;50.886;4.700;2022-08-19T15:21:29;27.50;98.80
8994;DHT22;4532;50.886;4.700;2022-08-19T15:23:59;27.50;99.00
8994;DHT22;4532;50.886;4.700;2022-08-19T15:26:28;27.40;99.10
8994;DHT22;4532;50.886;4.700;2022-08-19T15:29:00;27.40;99.40
8994;DHT22;4532;50.886;4.700;2022-08-19T15:31:29;27.40;99.50
8994;DHT22;4532;50.886;4.700;2022-08-19T15:34:06;27.40;99.40
8994;DHT22;4532;50.886;4.700;2022-08-19T15:36:36;27.40;99.30
8994;DHT22;4532;50.886;4.700;2022-08-19T15:39:05;27.30;99.30
8994;DHT22;4532;50.886;4.700;2022-08-19T15:41:36;27.30;99.20
8994;DHT22;4532;50.886;4.700;2022-08-19T15:44:10;27.20;99.10
8994;DHT22;4532;50.886;4.700;2022-08-19T15:46:40;27.10;99.10
8994;DHT22;4532;50.886;4.700;2022-08-19T15:49:11;27.00;99.40
8994;DHT22;4532;50.886;4.700;2022-08-19T15:51:44;26.90;99.10
8994;DHT22;4532;50.886;4.700;2022-08-19T15:54:16;26.80;99.10
8994;DHT22;4532;50.886;4.700;2022-08-19T15:56:47;26.70;99.10
8994;DHT22;4532;50.886;4.700;2022-08-19T15:59:34;26.60;99.40
8994;DHT22;4532;50.886;4.700;2022-08-19T16:02:24;26.60;99.50
8994;DHT22;4532;50.886;4.700;2022-08-19T16:05:19;26.60;99.60
8994;DHT22;4532;50.886;4.700;2022-08-19T16:08:08;26.70;99.90
8994;DHT22;4532;50.886;4.700;2022-08-19T16:10:38;26.70;99.90
8994;DHT22;4532;50.886;4.700;2022-08-19T16:13:07;26.80;99.90
8994;DHT22;4532;50.886;4.700;2022-08-19T16:15:36;26.80;99.90
8994;DHT22;4532;50.886;4.700;2022-08-19T16:18:03;26.90;99.90
8994;DHT22;4532;50.886;4.700;2022-08-19T16:20:33;27.00;99.90
8994;DHT22;4532;50.886;4.700;2022-08-19T16:23:02;27.00;99.90
8994;DHT22;4532;50.886;4.700;2022-08-19T16:25:33;27.10;99.90
8994;DHT22;4532;50.886;4.700;2022-08-19T16:28:02;27.10;99.90
8994;DHT22;4532;50.886;4.700;2022-08-19T16:30:38;27.10;99.90
8994;DHT22;4532;50.886;4.700;2022-08-19T16:33:14;27.20;99.90
8994;DHT22;4532;50.886;4.700;2022-08-19T16:35:51;27.10;99.90
8994;DHT22;4532;50.886;4.700;2022-08-19T16:38:29;27.10;99.90
8994;DHT22;4532;50.886;4.700;2022-08-19T16:40:59;27.10;99.90
8994;DHT22;4532;50.886;4.700;2022-08-19T16:43:28;27.10;99.90
8994;DHT22;4532;50.886;4.700;2022-08-19T16:45:57;27.10;99.90
8994;DHT22;4532;50.886;4.700;2022-08-19T16:48:29;27.00;99.90
8994;DHT22;4532;50.886;4.700;2022-08-19T16:51:01;27.00;99.90